F/V Spered Breizh — FIHY — position and weather

sailwx.info

Track history (hours):
 
Tides and Currents Weather Stations Pressure Air Temp Water Temp Dewpoint Dewpoint Depression Visibility Wind Speed Wind Dir Waves Ship Positions

F/V Spered Breizh

Last reported at 2017-Nov-19 23:56 UTC. Time now 2017-Nov-20 00:19 UTC.
Position N 48°06' W 004°19'.

Length 17 m.

MMSI: 228037700.

Date/timePositionNaut miles runAvg speedWind from/ knotsBaromVisibWave heightAir tempDewpointWater temp
2017-Nov-19 23:56N 48°06' W 004°19'0 0.0
2017-Nov-19 23:30N 48°06' W 004°19'0 0.0
2017-Nov-19 23:00N 48°06' W 004°19'0 0.0
2017-Nov-19 22:30N 48°06' W 004°19'0 0.0
2017-Nov-19 22:00N 48°06' W 004°19'0 0.0
2017-Nov-19 21:30N 48°06' W 004°19'0 0.0
2017-Nov-19 21:00N 48°06' W 004°19'0 0.0
2017-Nov-19 20:30N 48°06' W 004°19'0 0.0
2017-Nov-19 20:00N 48°06' W 004°19'4 8.9
2017-Nov-19 19:30N 48°10' W 004°23'3 5.4
2017-Nov-19 19:01N 48°12' W 004°26'0 0.8
2017-Nov-19 18:30N 48°12' W 004°26'0 0.9
2017-Nov-19 18:00N 48°12' W 004°26'2 4.5
2017-Nov-19 17:30N 48°10' W 004°28'1 1.9
2017-Nov-19 17:00N 48°10' W 004°27'1 3.0
2017-Nov-19 16:30N 48°11' W 004°25'2 4.3
2017-Nov-19 16:00N 48°10' W 004°22'4 8.7
2017-Nov-19 15:31N 48°06' W 004°19'  
2017-Nov-16 22:35N 48°06' W 004°19'0 0.0
2017-Nov-16 22:30N 48°06' W 004°19'0 0.4
2017-Nov-16 22:00N 48°06' W 004°20'0 0.1
2017-Nov-16 21:30N 48°06' W 004°20'2 4.4
2017-Nov-16 21:01N 48°08' W 004°19'3 5.9
2017-Nov-16 20:31N 48°11' W 004°19'4 7.6
2017-Nov-16 20:01N 48°12' W 004°24'1 2.5
2017-Nov-16 19:30N 48°13' W 004°25'1 2.6
2017-Nov-16 19:01N 48°12' W 004°25'0 0.4
2017-Nov-16 18:31N 48°12' W 004°25'4 7.2
2017-Nov-16 18:00N 48°12' W 004°20'2 4.7
2017-Nov-16 17:31N 48°10' W 004°21'3 6.7
2017-Nov-16 17:01N 48°08' W 004°25'3 5.2
2017-Nov-16 16:31N 48°07' W 004°29'3 5.0
2017-Nov-16 16:00N 48°07' W 004°25'4 7.8
2017-Nov-16 15:31N 48°06' W 004°20'0 0.0
2017-Nov-16 15:00N 48°06' W 004°20'0 0.0
2017-Nov-16 14:31N 48°06' W 004°20'0 0.2
2017-Nov-16 14:01N 48°06' W 004°19'0 0.0
2017-Nov-16 13:31N 48°06' W 004°19'0 0.0
2017-Nov-16 13:00N 48°06' W 004°19'0 0.0
2017-Nov-16 11:08N 48°06' W 004°19'0 0.0
2017-Nov-16 11:00N 48°06' W 004°19'0 0.0
2017-Nov-16 10:30N 48°06' W 004°19'0 0.0
2017-Nov-16 10:00N 48°06' W 004°19'0 0.0
2017-Nov-16 00:38N 48°06' W 004°19'0 0.2
2017-Nov-16 00:30N 48°06' W 004°20'0 0.0
2017-Nov-16 00:00N 48°06' W 004°20'0 0.0
2017-Nov-15 23:30N 48°06' W 004°20'0 0.0
2017-Nov-15 23:00N 48°06' W 004°20'2 4.3
2017-Nov-15 22:31N 48°08' W 004°21'2 4.4
2017-Nov-15 22:00N 48°10' W 004°22'0 0.4
2017-Nov-15 21:31N 48°10' W 004°22'0 0.4
2017-Nov-15 21:00N 48°10' W 004°22'3 5.3
2017-Nov-15 20:30N 48°10' W 004°26'3 6.8
2017-Nov-15 20:00N 48°10' W 004°31'3 6.4
2017-Nov-15 19:31N 48°07' W 004°32'2 4.2
2017-Nov-15 19:00N 48°05' W 004°34'3 7.0
2017-Nov-15 18:30N 48°07' W 004°29'0 0.6
2017-Nov-15 18:00N 48°07' W 004°29'1 1.4
2017-Nov-15 17:30N 48°07' W 004°28'1 1.4
2017-Nov-15 17:01N 48°07' W 004°29'2 3.3
2017-Nov-15 16:31N 48°08' W 004°27'510.0
2017-Nov-15 16:00N 48°06' W 004°19'0 0.0
2017-Nov-14 23:19N 48°06' W 004°19'0 0.4
2017-Nov-14 23:01N 48°06' W 004°19'0 0.0
2017-Nov-14 22:30N 48°06' W 004°19'0 0.0
2017-Nov-14 22:01N 48°06' W 004°19'4 8.6
2017-Nov-14 21:31N 48°10' W 004°19'3 6.3
2017-Nov-14 21:01N 48°11' W 004°24'0 0.7
2017-Nov-14 20:31N 48°11' W 004°25'1 2.1
2017-Nov-14 20:01N 48°11' W 004°26'1 2.4
2017-Nov-14 19:31N 48°10' W 004°27'3 6.7
2017-Nov-14 19:01N 48°08' W 004°30'2 3.2
2017-Nov-14 18:30N 48°07' W 004°28'1 2.9
2017-Nov-14 18:00N 48°07' W 004°26'1 1.3
2017-Nov-14 17:31N 48°07' W 004°25'1 1.2
2017-Nov-14 17:01N 48°08' W 004°25'0 0.7
2017-Nov-14 16:30N 48°08' W 004°25'4 8.2
2017-Nov-14 16:01N 48°06' W 004°19'1 0.0
2017-Nov-14 04:49N 48°06' W 004°19'1 3.4
2017-Nov-14 04:30N 48°07' W 004°20'5 9.4
2017-Nov-14 04:00N 48°08' W 004°27'3 7.0
2017-Nov-14 03:30N 48°06' W 004°31'1 1.2
2017-Nov-14 03:00N 48°06' W 004°32'5 9.8
2017-Nov-14 02:30N 48°05' W 004°39'4 8.5
2017-Nov-14 02:00N 48°03' W 004°45'3 6.8
2017-Nov-14 01:30N 48°01' W 004°42'5 9.2
2017-Nov-14 01:00N 47°59' W 004°35'3 5.7
2017-Nov-14 00:30N 47°58' W 004°31'4 8.9
2017-Nov-14 00:00N 47°56' W 004°26'5 9.4
2017-Nov-13 23:30N 47°52' W 004°22'1 1.4
2017-Nov-13 23:00N 47°51' W 004°22'4 7.5
2017-Nov-13 22:29N 47°47' W 004°24'6 9.6
2017-Nov-13 21:54N 47°45' W 004°16'37 1.8
2017-Nov-13 02:00N 47°44' W 003°22'0 0.0
2017-Nov-13 01:30N 47°44' W 003°22'0 0.0
2017-Nov-13 01:00N 47°44' W 003°22'0 0.0
2017-Nov-13 00:30N 47°44' W 003°22'0 0.0
2017-Nov-13 00:00N 47°44' W 003°22'3 5.7
2017-Nov-12 23:30N 47°41' W 003°24'3 6.2
2017-Nov-12 23:00N 47°42' W 003°29'510.0
2017-Nov-12 22:30N 47°43' W 003°36'2 3.5
2017-Nov-12 22:00N 47°44' W 003°38'2 3.4
2017-Nov-12 21:30N 47°44' W 003°36'0 0.4
2017-Nov-12 21:00N 47°44' W 003°36'0 0.4
2017-Nov-12 20:30N 47°44' W 003°36'1 1.0
2017-Nov-12 20:00N 47°44' W 003°36'0 0.9
2017-Nov-12 19:30N 47°44' W 003°36'1 2.1
2017-Nov-12 19:00N 47°43' W 003°36'4 8.6
2017-Nov-12 18:30N 47°41' W 003°30'4 8.2
2017-Nov-12 18:00N 47°40' W 003°24'4 8.3
2017-Nov-12 17:31N 47°39' W 003°18'2 3.0
2017-Nov-12 17:00N 47°39' W 003°21'3 6.2
2017-Nov-12 16:30N 47°42' W 003°23'2 4.1
2017-Nov-12 16:00N 47°44' W 003°22'0 0.1
2017-Nov-12 15:30N 47°44' W 003°22'  
2017-Nov-10 05:18N 47°44' W 003°22'0 0.1
2017-Nov-10 05:01N 47°44' W 003°22'0 0.0
2017-Nov-10 04:31N 47°44' W 003°22'0 0.0
2017-Nov-10 04:01N 47°44' W 003°22'0 0.0
2017-Nov-10 03:31N 47°44' W 003°22'0 0.0
2017-Nov-10 03:01N 47°44' W 003°22'1 1.0
2017-Nov-10 02:31N 47°43' W 003°22'4 8.0
2017-Nov-10 02:00N 47°41' W 003°27'4 7.1
2017-Nov-10 01:31N 47°43' W 003°32'1 2.7
2017-Nov-10 01:01N 47°43' W 003°33'0 0.4
2017-Nov-10 00:31N 47°43' W 003°33'3 5.9
2017-Nov-10 00:01N 47°44' W 003°37'  
Track history (hours):
 
Tides and Currents Weather Stations Pressure Air Temp Water Temp Dewpoint Dewpoint Depression Visibility Wind Speed Wind Dir Waves Ship Positions

F/V Spered Breizh

Last reported at 2017-Nov-19 23:56 UTC. Time now 2017-Nov-20 00:19 UTC.
Position N 48°06' W 004°19'.

Length 17 m.

MMSI: 228037700.

Date/timePositionNaut miles runAvg speedWind from/ knotsBaromVisibWave heightAir tempDewpointWater temp
2017-Nov-19 23:56N 48°06' W 004°19'0 0.0
2017-Nov-19 23:30N 48°06' W 004°19'0 0.0
2017-Nov-19 23:00N 48°06' W 004°19'0 0.0
2017-Nov-19 22:30N 48°06' W 004°19'0 0.0
2017-Nov-19 22:00N 48°06' W 004°19'0 0.0
2017-Nov-19 21:30N 48°06' W 004°19'0 0.0
2017-Nov-19 21:00N 48°06' W 004°19'0 0.0
2017-Nov-19 20:30N 48°06' W 004°19'0 0.0
2017-Nov-19 20:00N 48°06' W 004°19'4 8.9
2017-Nov-19 19:30N 48°10' W 004°23'3 5.4
2017-Nov-19 19:01N 48°12' W 004°26'0 0.8
2017-Nov-19 18:30N 48°12' W 004°26'0 0.9
2017-Nov-19 18:00N 48°12' W 004°26'2 4.5
2017-Nov-19 17:30N 48°10' W 004°28'1 1.9
2017-Nov-19 17:00N 48°10' W 004°27'1 3.0
2017-Nov-19 16:30N 48°11' W 004°25'2 4.3
2017-Nov-19 16:00N 48°10' W 004°22'4 8.7
2017-Nov-19 15:31N 48°06' W 004°19'  
2017-Nov-16 22:35N 48°06' W 004°19'0 0.0
2017-Nov-16 22:30N 48°06' W 004°19'0 0.4
2017-Nov-16 22:00N 48°06' W 004°20'0 0.1
2017-Nov-16 21:30N 48°06' W 004°20'2 4.4
2017-Nov-16 21:01N 48°08' W 004°19'3 5.9
2017-Nov-16 20:31N 48°11' W 004°19'4 7.6
2017-Nov-16 20:01N 48°12' W 004°24'1 2.5
2017-Nov-16 19:30N 48°13' W 004°25'1 2.6
2017-Nov-16 19:01N 48°12' W 004°25'0 0.4
2017-Nov-16 18:31N 48°12' W 004°25'4 7.2
2017-Nov-16 18:00N 48°12' W 004°20'2 4.7
2017-Nov-16 17:31N 48°10' W 004°21'3 6.7
2017-Nov-16 17:01N 48°08' W 004°25'3 5.2
2017-Nov-16 16:31N 48°07' W 004°29'3 5.0
2017-Nov-16 16:00N 48°07' W 004°25'4 7.8
2017-Nov-16 15:31N 48°06' W 004°20'0 0.0
2017-Nov-16 15:00N 48°06' W 004°20'0 0.0
2017-Nov-16 14:31N 48°06' W 004°20'0 0.2
2017-Nov-16 14:01N 48°06' W 004°19'0 0.0
2017-Nov-16 13:31N 48°06' W 004°19'0 0.0
2017-Nov-16 13:00N 48°06' W 004°19'0 0.0
2017-Nov-16 11:08N 48°06' W 004°19'0 0.0
2017-Nov-16 11:00N 48°06' W 004°19'0 0.0
2017-Nov-16 10:30N 48°06' W 004°19'0 0.0
2017-Nov-16 10:00N 48°06' W 004°19'0 0.0
2017-Nov-16 00:38N 48°06' W 004°19'0 0.2
2017-Nov-16 00:30N 48°06' W 004°20'0 0.0
2017-Nov-16 00:00N 48°06' W 004°20'0 0.0
2017-Nov-15 23:30N 48°06' W 004°20'0 0.0
2017-Nov-15 23:00N 48°06' W 004°20'2 4.3
2017-Nov-15 22:31N 48°08' W 004°21'2 4.4
2017-Nov-15 22:00N 48°10' W 004°22'0 0.4
2017-Nov-15 21:31N 48°10' W 004°22'0 0.4
2017-Nov-15 21:00N 48°10' W 004°22'3 5.3
2017-Nov-15 20:30N 48°10' W 004°26'3 6.8
2017-Nov-15 20:00N 48°10' W 004°31'3 6.4
2017-Nov-15 19:31N 48°07' W 004°32'2 4.2
2017-Nov-15 19:00N 48°05' W 004°34'3 7.0
2017-Nov-15 18:30N 48°07' W 004°29'0 0.6
2017-Nov-15 18:00N 48°07' W 004°29'1 1.4
2017-Nov-15 17:30N 48°07' W 004°28'1 1.4
2017-Nov-15 17:01N 48°07' W 004°29'2 3.3
2017-Nov-15 16:31N 48°08' W 004°27'510.0
2017-Nov-15 16:00N 48°06' W 004°19'0 0.0
2017-Nov-14 23:19N 48°06' W 004°19'0 0.4
2017-Nov-14 23:01N 48°06' W 004°19'0 0.0
2017-Nov-14 22:30N 48°06' W 004°19'0 0.0
2017-Nov-14 22:01N 48°06' W 004°19'4 8.6
2017-Nov-14 21:31N 48°10' W 004°19'3 6.3
2017-Nov-14 21:01N 48°11' W 004°24'0 0.7
2017-Nov-14 20:31N 48°11' W 004°25'1 2.1
2017-Nov-14 20:01N 48°11' W 004°26'1 2.4
2017-Nov-14 19:31N 48°10' W 004°27'3 6.7
2017-Nov-14 19:01N 48°08' W 004°30'2 3.2
2017-Nov-14 18:30N 48°07' W 004°28'1 2.9
2017-Nov-14 18:00N 48°07' W 004°26'1 1.3
2017-Nov-14 17:31N 48°07' W 004°25'1 1.2
2017-Nov-14 17:01N 48°08' W 004°25'0 0.7
2017-Nov-14 16:30N 48°08' W 004°25'4 8.2
2017-Nov-14 16:01N 48°06' W 004°19'1 0.0
2017-Nov-14 04:49N 48°06' W 004°19'1 3.4
2017-Nov-14 04:30N 48°07' W 004°20'5 9.4
2017-Nov-14 04:00N 48°08' W 004°27'3 7.0
2017-Nov-14 03:30N 48°06' W 004°31'1 1.2
2017-Nov-14 03:00N 48°06' W 004°32'5 9.8
2017-Nov-14 02:30N 48°05' W 004°39'4 8.5
2017-Nov-14 02:00N 48°03' W 004°45'3 6.8
2017-Nov-14 01:30N 48°01' W 004°42'5 9.2
2017-Nov-14 01:00N 47°59' W 004°35'3 5.7
2017-Nov-14 00:30N 47°58' W 004°31'4 8.9
2017-Nov-14 00:00N 47°56' W 004°26'5 9.4
2017-Nov-13 23:30N 47°52' W 004°22'1 1.4
2017-Nov-13 23:00N 47°51' W 004°22'4 7.5
2017-Nov-13 22:29N 47°47' W 004°24'6 9.6
2017-Nov-13 21:54N 47°45' W 004°16'37 1.8
2017-Nov-13 02:00N 47°44' W 003°22'0 0.0
2017-Nov-13 01:30N 47°44' W 003°22'0 0.0
2017-Nov-13 01:00N 47°44' W 003°22'0 0.0
2017-Nov-13 00:30N 47°44' W 003°22'0 0.0
2017-Nov-13 00:00N 47°44' W 003°22'3 5.7
2017-Nov-12 23:30N 47°41' W 003°24'3 6.2
2017-Nov-12 23:00N 47°42' W 003°29'510.0
2017-Nov-12 22:30N 47°43' W 003°36'2 3.5
2017-Nov-12 22:00N 47°44' W 003°38'2 3.4
2017-Nov-12 21:30N 47°44' W 003°36'0 0.4
2017-Nov-12 21:00N 47°44' W 003°36'0 0.4
2017-Nov-12 20:30N 47°44' W 003°36'1 1.0
2017-Nov-12 20:00N 47°44' W 003°36'0 0.9
2017-Nov-12 19:30N 47°44' W 003°36'1 2.1
2017-Nov-12 19:00N 47°43' W 003°36'4 8.6
2017-Nov-12 18:30N 47°41' W 003°30'4 8.2
2017-Nov-12 18:00N 47°40' W 003°24'4 8.3
2017-Nov-12 17:31N 47°39' W 003°18'2 3.0
2017-Nov-12 17:00N 47°39' W 003°21'3 6.2
2017-Nov-12 16:30N 47°42' W 003°23'2 4.1
2017-Nov-12 16:00N 47°44' W 003°22'0 0.1
2017-Nov-12 15:30N 47°44' W 003°22'  
2017-Nov-10 05:18N 47°44' W 003°22'0 0.1
2017-Nov-10 05:01N 47°44' W 003°22'0 0.0
2017-Nov-10 04:31N 47°44' W 003°22'0 0.0
2017-Nov-10 04:01N 47°44' W 003°22'0 0.0
2017-Nov-10 03:31N 47°44' W 003°22'0 0.0
2017-Nov-10 03:01N 47°44' W 003°22'1 1.0
2017-Nov-10 02:31N 47°43' W 003°22'4 8.0
2017-Nov-10 02:00N 47°41' W 003°27'4 7.1
2017-Nov-10 01:31N 47°43' W 003°32'1 2.7
2017-Nov-10 01:01N 47°43' W 003°33'0 0.4
2017-Nov-10 00:31N 47°43' W 003°33'3 5.9
2017-Nov-10 00:01N 47°44' W 003°37'  

Dump ship's entire track history